KTIW/TIW METAR and TAF weather

Enter ICAO airport designator
Station Type Date Time Source
KTIW METAR 2018/12/15 22:53 UTC NOAA

KTIW 152253Z 00000KT 10SM OVC100 08/02 A2993 RMK AO2 SLP137 T00780017


Station Type Date Time Source
KTIW Decoded METAR 2018/12/15 22:53 UTC NOAA

Tacoma, Tacoma Narrows Airport, WA, United States (KTIW) 47-16-03N 122-34-34W 96M
Dec 15, 2018 - 05:53 PM EST / 2018.12.15 2253 UTC
Wind: Calm:0
Visibility: 10 mile(s):0
Sky conditions: overcast
Temperature: 46.0 F (7.8 C)
Dew Point: 35.1 F (1.7 C)
Relative Humidity: 65%
Pressure (altimeter): 29.93 in. Hg (1013 hPa)
ob: KTIW 152253Z 00000KT 10SM OVC100 08/02 A2993 RMK AO2 SLP137 T00780017
cycle: 23

Station Type Date Time Source
KTIW TAF UTC NOAA

Error!


Example: see airport list